Aeroporto :
LOGIN :

Iscrizione | Disclaimer

   EN    FR    IT 

 










Sommario :    VFR   VFR Marginale   IFR   IFR Intensivo   IFR Molto Intensivo
Visibilità : 
Base nubi : 
>= 8 km
>= 3000ft
5 / 8 km
1000 / 3000 ft
1500m / 5 km
500 / 1000 ft
800 / 1500m
200 / 500 ft
< 800m
< 200 ft
Simboli :   Temporali  Nebbia  Neve Forte  Precipitazioni Forti  Vento > 20 kt
SIGMETs :   Varie  Temporali  Ghiacco  Turbolenza  Onda orograficha  Ceneri Vulcaniche







- Altitudine del aeroporto : 388 ft
- Codice IATA : QYR
- Carte del aeroporto


LFQB - Troyes Barberey

ULTIMO METAR :
  • 172230Z AUTO 24011KT 9999 SCT031 OVC044 20/19 Q1010

METARs OBSOLETI :
  • 172200Z AUTO 27012KT 5000 -RA BR FEW009 BKN021 BKN030 20/19 Q1010
  • 172130Z AUTO 23012KT 9999 FEW026/// SCT049/// OVC140/// ///TCU 21/19 Q1010
  • 172100Z AUTO 22013KT 9999 BKN029/// OVC160/// ///TCU 21/19 Q1010
  • 172030Z AUTO 21010KT 9999 BKN031/// BKN047/// BKN096/// ///TCU 21/19 Q1010
  • 172000Z AUTO 18006KT 9999 SCT037/// BKN046/// BKN054/// ///TCU 20/19 Q1010

TAF N/A
Nessun NOTAM noto per questo aeroporto.



MetMap, La meteo Aeronautica in un colpo d'occhio ! - Copyright ORBIFLY Dicembre 2007 - Disclaimer

ORBIFLY MET'MAP TEAM :

Programmazione e sviluppo : Alexandra Zaïnal
Concezione e sviluppo : Baudouin d'Aumeries
Co-Programmazione e sviluppo : Marc-Olivier Méhu
Supporto tecnico e logistico : Manuel Goepfert
Aiuto per la traduzione : Arnaldo La Scala

Contatto : metmap@orbifly.com




FONTI E CREDITI :

   NOAA